sensor_id;sensor_type;location;lat;lon;timestamp;P1;P2;P0
70915;PMS5003;58557;50.982;-3.222;2023-11-21T00:00:11;3;2;
70915;PMS5003;58557;50.982;-3.222;2023-11-21T00:02:36;4;2;
70915;PMS5003;58557;50.982;-3.222;2023-11-21T00:05:02;5;4;
70915;PMS5003;58557;50.982;-3.222;2023-11-21T00:07:27;4;2;
70915;PMS5003;58557;50.982;-3.222;2023-11-21T00:09:53;3;2;
70915;PMS5003;58557;50.982;-3.222;2023-11-21T00:12:19;2;2;
70915;PMS5003;58557;50.982;-3.222;2023-11-21T00:14:44;3;2;
70915;PMS5003;58557;50.982;-3.222;2023-11-21T00:17:10;4;2;
70915;PMS5003;58557;50.982;-3.222;2023-11-21T00:19:36;5;3;
70915;PMS5003;58557;50.982;-3.222;2023-11-21T00:22:02;1;1;
70915;PMS5003;58557;50.982;-3.222;2023-11-21T00:24:28;2;2;
70915;PMS5003;58557;50.982;-3.222;2023-11-21T00:26:53;3;2;
70915;PMS5003;58557;50.982;-3.222;2023-11-21T00:29:19;2;2;
70915;PMS5003;58557;50.982;-3.222;2023-11-21T00:31:44;5;3;
70915;PMS5003;58557;50.982;-3.222;2023-11-21T00:34:11;2;2;
70915;PMS5003;58557;50.982;-3.222;2023-11-21T00:36:36;2;2;
70915;PMS5003;58557;50.982;-3.222;2023-11-21T00:39:02;3;3;
70915;PMS5003;58557;50.982;-3.222;2023-11-21T00:41:27;3;3;
70915;PMS5003;58557;50.982;-3.222;2023-11-21T00:43:53;2;2;
70915;PMS5003;58557;50.982;-3.222;2023-11-21T00:46:18;8;5;
70915;PMS5003;58557;50.982;-3.222;2023-11-21T00:48:44;3;1;
70915;PMS5003;58557;50.982;-3.222;2023-11-21T00:51:10;6;5;
70915;PMS5003;58557;50.982;-3.222;2023-11-21T00:53:35;2;2;
70915;PMS5003;58557;50.982;-3.222;2023-11-21T00:56:01;3;2;
70915;PMS5003;58557;50.982;-3.222;2023-11-21T00:58:27;1;1;
70915;PMS5003;58557;50.982;-3.222;2023-11-21T01:00:53;3;2;
70915;PMS5003;58557;50.982;-3.222;2023-11-21T01:03:18;3;2;
70915;PMS5003;58557;50.982;-3.222;2023-11-21T01:05:44;1;1;
70915;PMS5003;58557;50.982;-3.222;2023-11-21T01:08:09;2;2;
70915;PMS5003;58557;50.982;-3.222;2023-11-21T01:10:35;3;3;
70915;PMS5003;58557;50.982;-3.222;2023-11-21T01:13:01;4;2;
70915;PMS5003;58557;50.982;-3.222;2023-11-21T01:15:26;2;2;
70915;PMS5003;58557;50.982;-3.222;2023-11-21T01:17:52;6;1;
70915;PMS5003;58557;50.982;-3.222;2023-11-21T01:20:18;1;1;
70915;PMS5003;58557;50.982;-3.222;2023-11-21T01:22:44;3;2;
70915;PMS5003;58557;50.982;-3.222;2023-11-21T01:25:09;1;1;
70915;PMS5003;58557;50.982;-3.222;2023-11-21T01:27:35;4;2;
70915;PMS5003;58557;50.982;-3.222;2023-11-21T01:30:01;3;2;
70915;PMS5003;58557;50.982;-3.222;2023-11-21T01:32:26;2;2;
70915;PMS5003;58557;50.982;-3.222;2023-11-21T01:34:52;1;1;
70915;PMS5003;58557;50.982;-3.222;2023-11-21T01:37:18;3;2;
70915;PMS5003;58557;50.982;-3.222;2023-11-21T01:39:44;2;2;
70915;PMS5003;58557;50.982;-3.222;2023-11-21T01:42:09;4;1;
70915;PMS5003;58557;50.982;-3.222;2023-11-21T01:44:35;5;2;
70915;PMS5003;58557;50.982;-3.222;2023-11-21T01:47:01;3;2;
70915;PMS5003;58557;50.982;-3.222;2023-11-21T01:49:27;4;1;
70915;PMS5003;58557;50.982;-3.222;2023-11-21T01:51:52;4;2;
70915;PMS5003;58557;50.982;-3.222;2023-11-21T01:54:19;3;3;
70915;PMS5003;58557;50.982;-3.222;2023-11-21T01:56:44;4;3;
70915;PMS5003;58557;50.982;-3.222;2023-11-21T01:59:10;2;2;
70915;PMS5003;58557;50.982;-3.222;2023-11-21T02:01:35;4;0;
70915;PMS5003;58557;50.982;-3.222;2023-11-21T02:04:01;4;3;
70915;PMS5003;58557;50.982;-3.222;2023-11-21T02:06:27;2;1;
70915;PMS5003;58557;50.982;-3.222;2023-11-21T02:08:52;2;2;
70915;PMS5003;58557;50.982;-3.222;2023-11-21T02:11:18;5;2;
70915;PMS5003;58557;50.982;-3.222;2023-11-21T02:13:44;2;2;
70915;PMS5003;58557;50.982;-3.222;2023-11-21T02:16:10;2;0;
70915;PMS5003;58557;50.982;-3.222;2023-11-21T02:18:35;3;1;
70915;PMS5003;58557;50.982;-3.222;2023-11-21T02:21:03;2;2;
70915;PMS5003;58557;50.982;-3.222;2023-11-21T02:23:27;3;2;
70915;PMS5003;58557;50.982;-3.222;2023-11-21T02:25:52;0;0;
70915;PMS5003;58557;50.982;-3.222;2023-11-21T02:28:18;1;1;
70915;PMS5003;58557;50.982;-3.222;2023-11-21T02:30:44;2;2;
70915;PMS5003;58557;50.982;-3.222;2023-11-21T02:33:10;1;1;
70915;PMS5003;58557;50.982;-3.222;2023-11-21T02:35:35;1;1;
70915;PMS5003;58557;50.982;-3.222;2023-11-21T02:38:01;1;1;
70915;PMS5003;58557;50.982;-3.222;2023-11-21T02:40:27;1;1;
70915;PMS5003;58557;50.982;-3.222;2023-11-21T02:42:52;3;1;
70915;PMS5003;58557;50.982;-3.222;2023-11-21T02:45:19;1;1;
70915;PMS5003;58557;50.982;-3.222;2023-11-21T02:47:44;1;1;
70915;PMS5003;58557;50.982;-3.222;2023-11-21T02:50:10;4;2;
70915;PMS5003;58557;50.982;-3.222;2023-11-21T02:52:36;1;1;
70915;PMS5003;58557;50.982;-3.222;2023-11-21T02:55:02;2;2;
70915;PMS5003;58557;50.982;-3.222;2023-11-21T02:57:27;2;2;
70915;PMS5003;58557;50.982;-3.222;2023-11-21T02:59:53;3;3;
70915;PMS5003;58557;50.982;-3.222;2023-11-21T03:02:19;2;2;
70915;PMS5003;58557;50.982;-3.222;2023-11-21T03:04:45;3;3;
70915;PMS5003;58557;50.982;-3.222;2023-11-21T03:07:10;5;2;
70915;PMS5003;58557;50.982;-3.222;2023-11-21T03:09:36;5;2;
70915;PMS5003;58557;50.982;-3.222;2023-11-21T03:12:01;2;2;
70915;PMS5003;58557;50.982;-3.222;2023-11-21T03:14:27;1;1;
70915;PMS5003;58557;50.982;-3.222;2023-11-21T03:16:53;4;3;
70915;PMS5003;58557;50.982;-3.222;2023-11-21T03:19:18;1;1;
70915;PMS5003;58557;50.982;-3.222;2023-11-21T03:21:44;2;2;
70915;PMS5003;58557;50.982;-3.222;2023-11-21T03:24:10;1;1;
70915;PMS5003;58557;50.982;-3.222;2023-11-21T03:26:36;2;2;
70915;PMS5003;58557;50.982;-3.222;2023-11-21T03:29:02;4;3;
70915;PMS5003;58557;50.982;-3.222;2023-11-21T03:31:27;2;2;
70915;PMS5003;58557;50.982;-3.222;2023-11-21T03:33:53;1;1;
70915;PMS5003;58557;50.982;-3.222;2023-11-21T03:36:19;4;3;
70915;PMS5003;58557;50.982;-3.222;2023-11-21T03:38:45;3;3;
70915;PMS5003;58557;50.982;-3.222;2023-11-21T03:41:10;3;3;
70915;PMS5003;58557;50.982;-3.222;2023-11-21T03:43:36;3;2;
70915;PMS5003;58557;50.982;-3.222;2023-11-21T03:46:02;2;2;
70915;PMS5003;58557;50.982;-3.222;2023-11-21T03:48:28;3;3;
70915;PMS5003;58557;50.982;-3.222;2023-11-21T03:50:53;5;2;
70915;PMS5003;58557;50.982;-3.222;2023-11-21T03:53:19;2;2;
70915;PMS5003;58557;50.982;-3.222;2023-11-21T03:55:45;4;2;
70915;PMS5003;58557;50.982;-3.222;2023-11-21T03:58:11;6;5;
70915;PMS5003;58557;50.982;-3.222;2023-11-21T04:00:36;9;9;
70915;PMS5003;58557;50.982;-3.222;2023-11-21T04:03:01;2;2;
70915;PMS5003;58557;50.982;-3.222;2023-11-21T04:05:27;4;3;
70915;PMS5003;58557;50.982;-3.222;2023-11-21T04:07:52;4;2;
70915;PMS5003;58557;50.982;-3.222;2023-11-21T04:10:18;6;3;
70915;PMS5003;58557;50.982;-3.222;2023-11-21T04:12:44;1;1;
70915;PMS5003;58557;50.982;-3.222;2023-11-21T04:15:10;4;2;
70915;PMS5003;58557;50.982;-3.222;2023-11-21T04:17:35;3;1;
70915;PMS5003;58557;50.982;-3.222;2023-11-21T04:20:02;5;3;
70915;PMS5003;58557;50.982;-3.222;2023-11-21T04:22:27;1;1;
70915;PMS5003;58557;50.982;-3.222;2023-11-21T04:24:53;2;2;
70915;PMS5003;58557;50.982;-3.222;2023-11-21T04:27:19;3;3;
70915;PMS5003;58557;50.982;-3.222;2023-11-21T04:29:44;4;2;
70915;PMS5003;58557;50.982;-3.222;2023-11-21T04:32:10;1;1;
70915;PMS5003;58557;50.982;-3.222;2023-11-21T04:34:36;3;2;
70915;PMS5003;58557;50.982;-3.222;2023-11-21T04:37:02;3;3;
70915;PMS5003;58557;50.982;-3.222;2023-11-21T04:39:28;2;2;
70915;PMS5003;58557;50.982;-3.222;2023-11-21T04:41:54;1;1;
70915;PMS5003;58557;50.982;-3.222;2023-11-21T04:44:19;1;1;
70915;PMS5003;58557;50.982;-3.222;2023-11-21T04:46:45;1;1;
70915;PMS5003;58557;50.982;-3.222;2023-11-21T04:49:11;2;2;
70915;PMS5003;58557;50.982;-3.222;2023-11-21T04:51:36;2;2;
70915;PMS5003;58557;50.982;-3.222;2023-11-21T04:54:02;1;1;
70915;PMS5003;58557;50.982;-3.222;2023-11-21T04:56:28;3;3;
70915;PMS5003;58557;50.982;-3.222;2023-11-21T04:58:54;1;1;
70915;PMS5003;58557;50.982;-3.222;2023-11-21T05:01:20;3;2;
70915;PMS5003;58557;50.982;-3.222;2023-11-21T05:03:46;2;1;
70915;PMS5003;58557;50.982;-3.222;2023-11-21T05:06:11;2;2;
70915;PMS5003;58557;50.982;-3.222;2023-11-21T05:08:37;2;1;
70915;PMS5003;58557;50.982;-3.222;2023-11-21T05:11:03;2;2;
70915;PMS5003;58557;50.982;-3.222;2023-11-21T05:13:29;3;1;
70915;PMS5003;58557;50.982;-3.222;2023-11-21T05:15:54;2;0;
70915;PMS5003;58557;50.982;-3.222;2023-11-21T05:18:20;1;1;
70915;PMS5003;58557;50.982;-3.222;2023-11-21T05:20:46;0;0;
70915;PMS5003;58557;50.982;-3.222;2023-11-21T05:23:12;1;1;
70915;PMS5003;58557;50.982;-3.222;2023-11-21T05:25:38;0;0;
70915;PMS5003;58557;50.982;-3.222;2023-11-21T05:28:03;2;2;
70915;PMS5003;58557;50.982;-3.222;2023-11-21T05:30:29;2;2;
70915;PMS5003;58557;50.982;-3.222;2023-11-21T05:32:55;0;0;
70915;PMS5003;58557;50.982;-3.222;2023-11-21T05:35:21;1;1;
70915;PMS5003;58557;50.982;-3.222;2023-11-21T05:37:46;3;3;
70915;PMS5003;58557;50.982;-3.222;2023-11-21T05:40:12;3;3;
70915;PMS5003;58557;50.982;-3.222;2023-11-21T05:42:39;1;1;
70915;PMS5003;58557;50.982;-3.222;2023-11-21T05:45:04;1;1;
70915;PMS5003;58557;50.982;-3.222;2023-11-21T05:47:30;1;1;
70915;PMS5003;58557;50.982;-3.222;2023-11-21T05:49:55;1;1;
70915;PMS5003;58557;50.982;-3.222;2023-11-21T05:52:21;1;1;
70915;PMS5003;58557;50.982;-3.222;2023-11-21T05:54:47;1;1;
70915;PMS5003;58557;50.982;-3.222;2023-11-21T05:57:13;1;1;
70915;PMS5003;58557;50.982;-3.222;2023-11-21T05:59:38;1;1;
70915;PMS5003;58557;50.982;-3.222;2023-11-21T06:02:04;1;1;
70915;PMS5003;58557;50.982;-3.222;2023-11-21T06:04:30;2;0;
70915;PMS5003;58557;50.982;-3.222;2023-11-21T06:06:56;0;0;
70915;PMS5003;58557;50.982;-3.222;2023-11-21T06:09:22;1;1;
70915;PMS5003;58557;50.982;-3.222;2023-11-21T06:11:47;0;0;
70915;PMS5003;58557;50.982;-3.222;2023-11-21T06:14:13;0;0;
70915;PMS5003;58557;50.982;-3.222;2023-11-21T06:16:39;1;0;
70915;PMS5003;58557;50.982;-3.222;2023-11-21T06:19:05;0;0;
70915;PMS5003;58557;50.982;-3.222;2023-11-21T06:21:31;2;1;
70915;PMS5003;58557;50.982;-3.222;2023-11-21T06:23:57;2;1;
70915;PMS5003;58557;50.982;-3.222;2023-11-21T06:26:23;1;1;
70915;PMS5003;58557;50.982;-3.222;2023-11-21T06:28:48;1;1;
70915;PMS5003;58557;50.982;-3.222;2023-11-21T06:31:14;0;0;
70915;PMS5003;58557;50.982;-3.222;2023-11-21T06:33:40;0;0;
70915;PMS5003;58557;50.982;-3.222;2023-11-21T06:36:06;0;0;
70915;PMS5003;58557;50.982;-3.222;2023-11-21T06:38:31;1;1;
70915;PMS5003;58557;50.982;-3.222;2023-11-21T06:40:57;1;1;
70915;PMS5003;58557;50.982;-3.222;2023-11-21T06:43:23;0;0;
70915;PMS5003;58557;50.982;-3.222;2023-11-21T06:45:49;0;0;
70915;PMS5003;58557;50.982;-3.222;2023-11-21T06:48:14;0;0;
70915;PMS5003;58557;50.982;-3.222;2023-11-21T06:50:40;1;1;
70915;PMS5003;58557;50.982;-3.222;2023-11-21T06:53:06;2;0;
70915;PMS5003;58557;50.982;-3.222;2023-11-21T06:55:32;1;1;
70915;PMS5003;58557;50.982;-3.222;2023-11-21T06:57:58;2;1;
70915;PMS5003;58557;50.982;-3.222;2023-11-21T07:00:23;0;0;
70915;PMS5003;58557;50.982;-3.222;2023-11-21T07:02:49;2;1;
70915;PMS5003;58557;50.982;-3.222;2023-11-21T07:05:15;0;0;
70915;PMS5003;58557;50.982;-3.222;2023-11-21T07:07:41;0;0;
70915;PMS5003;58557;50.982;-3.222;2023-11-21T07:10:07;0;0;
70915;PMS5003;58557;50.982;-3.222;2023-11-21T07:12:32;2;0;
70915;PMS5003;58557;50.982;-3.222;2023-11-21T07:14:58;0;0;
70915;PMS5003;58557;50.982;-3.222;2023-11-21T07:17:24;0;0;
70915;PMS5003;58557;50.982;-3.222;2023-11-21T07:19:50;0;0;
70915;PMS5003;58557;50.982;-3.222;2023-11-21T07:22:16;0;0;
70915;PMS5003;58557;50.982;-3.222;2023-11-21T07:24:42;1;1;
70915;PMS5003;58557;50.982;-3.222;2023-11-21T07:27:07;1;0;
70915;PMS5003;58557;50.982;-3.222;2023-11-21T07:29:33;1;0;
70915;PMS5003;58557;50.982;-3.222;2023-11-21T07:31:59;1;1;
70915;PMS5003;58557;50.982;-3.222;2023-11-21T07:34:25;0;0;
70915;PMS5003;58557;50.982;-3.222;2023-11-21T07:36:50;1;1;
70915;PMS5003;58557;50.982;-3.222;2023-11-21T07:39:16;1;0;
70915;PMS5003;58557;50.982;-3.222;2023-11-21T07:41:42;0;0;
70915;PMS5003;58557;50.982;-3.222;2023-11-21T07:44:08;2;0;
70915;PMS5003;58557;50.982;-3.222;2023-11-21T07:46:34;0;0;
70915;PMS5003;58557;50.982;-3.222;2023-11-21T07:48:59;0;0;
70915;PMS5003;58557;50.982;-3.222;2023-11-21T07:51:25;0;0;
70915;PMS5003;58557;50.982;-3.222;2023-11-21T07:53:51;0;0;
70915;PMS5003;58557;50.982;-3.222;2023-11-21T07:56:17;0;0;
70915;PMS5003;58557;50.982;-3.222;2023-11-21T07:58:43;0;0;
70915;PMS5003;58557;50.982;-3.222;2023-11-21T08:01:09;0;0;
70915;PMS5003;58557;50.982;-3.222;2023-11-21T08:03:34;3;3;
70915;PMS5003;58557;50.982;-3.222;2023-11-21T08:06:00;0;0;
70915;PMS5003;58557;50.982;-3.222;2023-11-21T08:08:26;0;0;
70915;PMS5003;58557;50.982;-3.222;2023-11-21T08:10:51;0;0;
70915;PMS5003;58557;50.982;-3.222;2023-11-21T08:13:17;0;0;
70915;PMS5003;58557;50.982;-3.222;2023-11-21T08:15:43;0;0;
70915;PMS5003;58557;50.982;-3.222;2023-11-21T08:18:09;0;0;
70915;PMS5003;58557;50.982;-3.222;2023-11-21T08:20:34;2;1;
70915;PMS5003;58557;50.982;-3.222;2023-11-21T08:23:00;1;1;
70915;PMS5003;58557;50.982;-3.222;2023-11-21T08:25:26;0;0;
70915;PMS5003;58557;50.982;-3.222;2023-11-21T08:27:52;1;0;
70915;PMS5003;58557;50.982;-3.222;2023-11-21T08:30:18;0;0;
70915;PMS5003;58557;50.982;-3.222;2023-11-21T08:32:44;2;1;
70915;PMS5003;58557;50.982;-3.222;2023-11-21T08:35:10;0;0;
70915;PMS5003;58557;50.982;-3.222;2023-11-21T08:37:35;1;1;
70915;PMS5003;58557;50.982;-3.222;2023-11-21T08:40:01;0;0;
70915;PMS5003;58557;50.982;-3.222;2023-11-21T08:42:27;0;0;
70915;PMS5003;58557;50.982;-3.222;2023-11-21T08:44:53;0;0;
70915;PMS5003;58557;50.982;-3.222;2023-11-21T08:47:18;1;1;
70915;PMS5003;58557;50.982;-3.222;2023-11-21T08:49:44;2;2;
70915;PMS5003;58557;50.982;-3.222;2023-11-21T08:52:10;0;0;
70915;PMS5003;58557;50.982;-3.222;2023-11-21T08:54:36;0;0;
70915;PMS5003;58557;50.982;-3.222;2023-11-21T08:57:02;1;0;
70915;PMS5003;58557;50.982;-3.222;2023-11-21T08:59:27;0;0;
70915;PMS5003;58557;50.982;-3.222;2023-11-21T09:01:53;0;0;
70915;PMS5003;58557;50.982;-3.222;2023-11-21T09:04:19;0;0;
70915;PMS5003;58557;50.982;-3.222;2023-11-21T09:06:45;0;0;
70915;PMS5003;58557;50.982;-3.222;2023-11-21T09:09:11;0;0;
70915;PMS5003;58557;50.982;-3.222;2023-11-21T09:11:37;1;1;
70915;PMS5003;58557;50.982;-3.222;2023-11-21T09:14:02;3;3;
70915;PMS5003;58557;50.982;-3.222;2023-11-21T09:16:27;6;6;
70915;PMS5003;58557;50.982;-3.222;2023-11-21T09:18:53;5;5;
70915;PMS5003;58557;50.982;-3.222;2023-11-21T09:21:19;9;9;
70915;PMS5003;58557;50.982;-3.222;2023-11-21T09:23:45;6;4;
70915;PMS5003;58557;50.982;-3.222;2023-11-21T09:26:11;1;1;
70915;PMS5003;58557;50.982;-3.222;2023-11-21T09:28:36;0;0;
70915;PMS5003;58557;50.982;-3.222;2023-11-21T09:31:02;0;0;
70915;PMS5003;58557;50.982;-3.222;2023-11-21T09:33:28;0;0;
70915;PMS5003;58557;50.982;-3.222;2023-11-21T09:35:54;2;0;
70915;PMS5003;58557;50.982;-3.222;2023-11-21T09:38:20;10;8;
70915;PMS5003;58557;50.982;-3.222;2023-11-21T09:40:45;9;6;
70915;PMS5003;58557;50.982;-3.222;2023-11-21T09:43:13;4;4;
70915;PMS5003;58557;50.982;-3.222;2023-11-21T09:45:36;8;8;
70915;PMS5003;58557;50.982;-3.222;2023-11-21T09:48:01;12;11;
70915;PMS5003;58557;50.982;-3.222;2023-11-21T09:50:27;9;9;
70915;PMS5003;58557;50.982;-3.222;2023-11-21T09:52:55;5;5;
70915;PMS5003;58557;50.982;-3.222;2023-11-21T09:55:18;6;6;
70915;PMS5003;58557;50.982;-3.222;2023-11-21T09:57:43;2;2;
70915;PMS5003;58557;50.982;-3.222;2023-11-21T10:00:10;5;4;
70915;PMS5003;58557;50.982;-3.222;2023-11-21T10:02:35;5;4;
70915;PMS5003;58557;50.982;-3.222;2023-11-21T10:05:01;2;2;
70915;PMS5003;58557;50.982;-3.222;2023-11-21T10:07:27;4;3;
70915;PMS5003;58557;50.982;-3.222;2023-11-21T10:09:53;4;4;
70915;PMS5003;58557;50.982;-3.222;2023-11-21T10:12:18;3;3;
70915;PMS5003;58557;50.982;-3.222;2023-11-21T10:14:44;1;1;
70915;PMS5003;58557;50.982;-3.222;2023-11-21T10:17:10;1;0;
70915;PMS5003;58557;50.982;-3.222;2023-11-21T10:19:36;2;0;
70915;PMS5003;58557;50.982;-3.222;2023-11-21T10:22:02;0;0;
70915;PMS5003;58557;50.982;-3.222;2023-11-21T10:24:27;0;0;
70915;PMS5003;58557;50.982;-3.222;2023-11-21T10:26:53;0;0;
70915;PMS5003;58557;50.982;-3.222;2023-11-21T10:29:19;0;0;
70915;PMS5003;58557;50.982;-3.222;2023-11-21T10:31:45;0;0;
70915;PMS5003;58557;50.982;-3.222;2023-11-21T10:34:12;0;0;
70915;PMS5003;58557;50.982;-3.222;2023-11-21T10:36:37;1;1;
70915;PMS5003;58557;50.982;-3.222;2023-11-21T10:39:02;0;0;
70915;PMS5003;58557;50.982;-3.222;2023-11-21T10:41:28;0;0;
70915;PMS5003;58557;50.982;-3.222;2023-11-21T10:43:54;0;0;
70915;PMS5003;58557;50.982;-3.222;2023-11-21T10:46:20;0;0;
70915;PMS5003;58557;50.982;-3.222;2023-11-21T10:48:45;0;0;
70915;PMS5003;58557;50.982;-3.222;2023-11-21T10:51:11;0;0;
70915;PMS5003;58557;50.982;-3.222;2023-11-21T10:53:38;2;1;
70915;PMS5003;58557;50.982;-3.222;2023-11-21T10:56:05;0;0;
70915;PMS5003;58557;50.982;-3.222;2023-11-21T10:58:29;0;0;
70915;PMS5003;58557;50.982;-3.222;2023-11-21T11:00:54;1;1;
70915;PMS5003;58557;50.982;-3.222;2023-11-21T11:03:20;0;0;
70915;PMS5003;58557;50.982;-3.222;2023-11-21T11:05:46;0;0;
70915;PMS5003;58557;50.982;-3.222;2023-11-21T11:08:12;1;1;
70915;PMS5003;58557;50.982;-3.222;2023-11-21T11:10:38;0;0;
70915;PMS5003;58557;50.982;-3.222;2023-11-21T11:13:03;0;0;
70915;PMS5003;58557;50.982;-3.222;2023-11-21T11:15:29;0;0;
70915;PMS5003;58557;50.982;-3.222;2023-11-21T11:17:55;2;0;
70915;PMS5003;58557;50.982;-3.222;2023-11-21T11:20:21;2;2;
70915;PMS5003;58557;50.982;-3.222;2023-11-21T11:22:50;2;0;
70915;PMS5003;58557;50.982;-3.222;2023-11-21T11:25:17;3;1;
70915;PMS5003;58557;50.982;-3.222;2023-11-21T11:27:40;1;0;
70915;PMS5003;58557;50.982;-3.222;2023-11-21T11:30:07;0;0;
70915;PMS5003;58557;50.982;-3.222;2023-11-21T11:32:32;1;1;
70915;PMS5003;58557;50.982;-3.222;2023-11-21T11:34:56;1;0;
70915;PMS5003;58557;50.982;-3.222;2023-11-21T11:37:21;1;1;
70915;PMS5003;58557;50.982;-3.222;2023-11-21T11:39:47;1;1;
70915;PMS5003;58557;50.982;-3.222;2023-11-21T11:42:13;1;1;
70915;PMS5003;58557;50.982;-3.222;2023-11-21T11:44:48;0;0;
70915;PMS5003;58557;50.982;-3.222;2023-11-21T11:47:05;0;0;
70915;PMS5003;58557;50.982;-3.222;2023-11-21T11:49:30;0;0;
70915;PMS5003;58557;50.982;-3.222;2023-11-21T11:56:47;0;0;
70915;PMS5003;58557;50.982;-3.222;2023-11-21T11:59:13;0;0;
70915;PMS5003;58557;50.982;-3.222;2023-11-21T12:01:39;2;2;
70915;PMS5003;58557;50.982;-3.222;2023-11-21T12:06:33;2;1;
70915;PMS5003;58557;50.982;-3.222;2023-11-21T12:08:58;1;1;
70915;PMS5003;58557;50.982;-3.222;2023-11-21T12:11:22;1;1;
70915;PMS5003;58557;50.982;-3.222;2023-11-21T12:13:48;0;0;
70915;PMS5003;58557;50.982;-3.222;2023-11-21T12:16:14;2;1;
70915;PMS5003;58557;50.982;-3.222;2023-11-21T12:18:39;1;1;
70915;PMS5003;58557;50.982;-3.222;2023-11-21T12:21:05;1;1;
70915;PMS5003;58557;50.982;-3.222;2023-11-21T12:23:31;1;1;
70915;PMS5003;58557;50.982;-3.222;2023-11-21T12:25:57;1;1;
70915;PMS5003;58557;50.982;-3.222;2023-11-21T12:28:23;2;2;
70915;PMS5003;58557;50.982;-3.222;2023-11-21T12:30:49;1;1;
70915;PMS5003;58557;50.982;-3.222;2023-11-21T12:33:14;1;1;
70915;PMS5003;58557;50.982;-3.222;2023-11-21T12:35:40;5;2;
70915;PMS5003;58557;50.982;-3.222;2023-11-21T12:38:06;1;1;
70915;PMS5003;58557;50.982;-3.222;2023-11-21T12:40:32;1;1;
70915;PMS5003;58557;50.982;-3.222;2023-11-21T12:42:58;1;1;
70915;PMS5003;58557;50.982;-3.222;2023-11-21T12:45:24;1;1;
70915;PMS5003;58557;50.982;-3.222;2023-11-21T12:47:50;4;1;
70915;PMS5003;58557;50.982;-3.222;2023-11-21T12:50:14;2;2;
70915;PMS5003;58557;50.982;-3.222;2023-11-21T12:52:41;2;2;
70915;PMS5003;58557;50.982;-3.222;2023-11-21T12:55:06;1;1;
70915;PMS5003;58557;50.982;-3.222;2023-11-21T12:57:31;2;2;
70915;PMS5003;58557;50.982;-3.222;2023-11-21T12:59:57;8;3;
70915;PMS5003;58557;50.982;-3.222;2023-11-21T13:02:23;2;2;
70915;PMS5003;58557;50.982;-3.222;2023-11-21T13:04:51;1;1;
70915;PMS5003;58557;50.982;-3.222;2023-11-21T13:07:14;1;1;
70915;PMS5003;58557;50.982;-3.222;2023-11-21T13:09:40;2;2;
70915;PMS5003;58557;50.982;-3.222;2023-11-21T13:12:06;3;3;
70915;PMS5003;58557;50.982;-3.222;2023-11-21T13:14:31;2;2;
70915;PMS5003;58557;50.982;-3.222;2023-11-21T13:16:57;9;6;
70915;PMS5003;58557;50.982;-3.222;2023-11-21T13:19:23;3;2;
70915;PMS5003;58557;50.982;-3.222;2023-11-21T13:21:48;3;2;
70915;PMS5003;58557;50.982;-3.222;2023-11-21T13:24:14;3;3;
70915;PMS5003;58557;50.982;-3.222;2023-11-21T13:26:40;2;2;
70915;PMS5003;58557;50.982;-3.222;2023-11-21T13:29:06;3;3;
70915;PMS5003;58557;50.982;-3.222;2023-11-21T13:31:31;3;3;
70915;PMS5003;58557;50.982;-3.222;2023-11-21T13:33:57;4;4;
70915;PMS5003;58557;50.982;-3.222;2023-11-21T13:36:23;4;4;
70915;PMS5003;58557;50.982;-3.222;2023-11-21T13:38:49;3;3;
70915;PMS5003;58557;50.982;-3.222;2023-11-21T13:41:15;3;3;
70915;PMS5003;58557;50.982;-3.222;2023-11-21T13:43:41;3;3;
70915;PMS5003;58557;50.982;-3.222;2023-11-21T13:46:06;2;2;
70915;PMS5003;58557;50.982;-3.222;2023-11-21T13:48:32;4;4;
70915;PMS5003;58557;50.982;-3.222;2023-11-21T13:50:58;2;2;
70915;PMS5003;58557;50.982;-3.222;2023-11-21T13:53:24;3;3;
70915;PMS5003;58557;50.982;-3.222;2023-11-21T13:55:49;4;2;
70915;PMS5003;58557;50.982;-3.222;2023-11-21T13:58:15;3;3;
70915;PMS5003;58557;50.982;-3.222;2023-11-21T14:00:41;2;2;
70915;PMS5003;58557;50.982;-3.222;2023-11-21T14:03:07;4;2;
70915;PMS5003;58557;50.982;-3.222;2023-11-21T14:05:33;4;3;
70915;PMS5003;58557;50.982;-3.222;2023-11-21T14:07:58;3;2;
70915;PMS5003;58557;50.982;-3.222;2023-11-21T14:10:24;4;4;
70915;PMS5003;58557;50.982;-3.222;2023-11-21T14:12:50;2;1;
70915;PMS5003;58557;50.982;-3.222;2023-11-21T14:15:16;2;2;
70915;PMS5003;58557;50.982;-3.222;2023-11-21T14:17:41;3;3;
70915;PMS5003;58557;50.982;-3.222;2023-11-21T14:20:08;4;4;
70915;PMS5003;58557;50.982;-3.222;2023-11-21T14:22:33;7;7;
70915;PMS5003;58557;50.982;-3.222;2023-11-21T14:24:59;4;4;
70915;PMS5003;58557;50.982;-3.222;2023-11-21T14:27:24;5;5;
70915;PMS5003;58557;50.982;-3.222;2023-11-21T14:29:50;2;2;
70915;PMS5003;58557;50.982;-3.222;2023-11-21T14:32:16;5;5;
70915;PMS5003;58557;50.982;-3.222;2023-11-21T14:34:42;5;3;
70915;PMS5003;58557;50.982;-3.222;2023-11-21T14:37:07;2;2;
70915;PMS5003;58557;50.982;-3.222;2023-11-21T14:39:33;2;2;
70915;PMS5003;58557;50.982;-3.222;2023-11-21T14:41:59;4;4;
70915;PMS5003;58557;50.982;-3.222;2023-11-21T14:44:25;4;2;
70915;PMS5003;58557;50.982;-3.222;2023-11-21T14:46:51;2;1;
70915;PMS5003;58557;50.982;-3.222;2023-11-21T14:49:16;2;2;
70915;PMS5003;58557;50.982;-3.222;2023-11-21T14:51:42;3;3;
70915;PMS5003;58557;50.982;-3.222;2023-11-21T14:54:08;3;2;
70915;PMS5003;58557;50.982;-3.222;2023-11-21T14:56:34;4;4;
70915;PMS5003;58557;50.982;-3.222;2023-11-21T14:59:00;2;2;
70915;PMS5003;58557;50.982;-3.222;2023-11-21T15:01:26;4;2;
70915;PMS5003;58557;50.982;-3.222;2023-11-21T15:03:51;6;4;
70915;PMS5003;58557;50.982;-3.222;2023-11-21T15:06:17;1;1;
70915;PMS5003;58557;50.982;-3.222;2023-11-21T15:08:43;2;2;
70915;PMS5003;58557;50.982;-3.222;2023-11-21T15:11:09;5;3;
70915;PMS5003;58557;50.982;-3.222;2023-11-21T15:13:34;3;3;
70915;PMS5003;58557;50.982;-3.222;2023-11-21T15:16:00;3;3;
70915;PMS5003;58557;50.982;-3.222;2023-11-21T15:18:26;3;3;
70915;PMS5003;58557;50.982;-3.222;2023-11-21T15:20:51;3;2;
70915;PMS5003;58557;50.982;-3.222;2023-11-21T15:23:17;3;3;
70915;PMS5003;58557;50.982;-3.222;2023-11-21T15:25:43;3;3;
70915;PMS5003;58557;50.982;-3.222;2023-11-21T15:28:09;3;3;
70915;PMS5003;58557;50.982;-3.222;2023-11-21T15:30:35;4;3;
70915;PMS5003;58557;50.982;-3.222;2023-11-21T15:33:01;3;3;
70915;PMS5003;58557;50.982;-3.222;2023-11-21T15:35:26;5;3;
70915;PMS5003;58557;50.982;-3.222;2023-11-21T15:37:52;4;3;
70915;PMS5003;58557;50.982;-3.222;2023-11-21T15:40:18;2;2;
70915;PMS5003;58557;50.982;-3.222;2023-11-21T15:42:44;4;3;
70915;PMS5003;58557;50.982;-3.222;2023-11-21T15:45:09;3;1;
70915;PMS5003;58557;50.982;-3.222;2023-11-21T15:47:35;3;3;
70915;PMS5003;58557;50.982;-3.222;2023-11-21T15:50:01;3;3;
70915;PMS5003;58557;50.982;-3.222;2023-11-21T15:52:27;2;2;
70915;PMS5003;58557;50.982;-3.222;2023-11-21T15:54:53;2;2;
70915;PMS5003;58557;50.982;-3.222;2023-11-21T15:57:18;3;3;
70915;PMS5003;58557;50.982;-3.222;2023-11-21T15:59:44;2;2;
70915;PMS5003;58557;50.982;-3.222;2023-11-21T16:02:10;4;2;
70915;PMS5003;58557;50.982;-3.222;2023-11-21T16:04:36;2;2;
70915;PMS5003;58557;50.982;-3.222;2023-11-21T16:07:02;2;2;
70915;PMS5003;58557;50.982;-3.222;2023-11-21T16:09:28;3;3;
70915;PMS5003;58557;50.982;-3.222;2023-11-21T16:11:53;4;4;
70915;PMS5003;58557;50.982;-3.222;2023-11-21T16:14:19;3;3;
70915;PMS5003;58557;50.982;-3.222;2023-11-21T16:16:44;4;4;
70915;PMS5003;58557;50.982;-3.222;2023-11-21T16:19:10;4;3;
70915;PMS5003;58557;50.982;-3.222;2023-11-21T16:21:36;5;4;
70915;PMS5003;58557;50.982;-3.222;2023-11-21T16:24:02;3;2;
70915;PMS5003;58557;50.982;-3.222;2023-11-21T16:26:27;4;3;
70915;PMS5003;58557;50.982;-3.222;2023-11-21T16:28:53;6;4;